Spirit Of Tasmania II — VNSZ — position and weather

sailwx.info

Track history (hours):
 
Tides and Currents Weather Stations Pressure Air Temp Water Temp Dewpoint Dewpoint Depression Visibility Wind Speed Wind Dir Waves Ship Positions

Spirit Of Tasmania II

Last reported at 2020-Aug-09 04:30 UTC. Time now 2020-Aug-09 05:20 UTC.
Position S 41°11' E 146°22'.

Length 194.3 m; beam 25 m; draft 6.2 m.

Type: Ship. MMSI: 503433000.

Date/timePositionNaut miles runAvg speedWind from/ knotsBaromVisibWave heightAir tempDewpointWater temp
2020-Aug-09 04:30S 41°11' E 146°22'2 3.7
2020-Aug-09 04:00S 41°12' E 146°24'0 0.0 360 / 61023.2 11.8 11.2
2020-Aug-09 03:00S 41°12' E 146°24'0 0.0 020 / 51023.0 12.2 11.0
2020-Aug-09 02:00S 41°12' E 146°24'0 0.0 170 / 51024.6 10.3 10.6
2020-Aug-09 01:00S 41°12' E 146°24'0 0.0 190 / 81025.2 8.2 10.1
2020-Aug-09 00:00S 41°12' E 146°24'2 3.9 180 / 101025.4 5.4 10.3
2020-Aug-08 23:30S 41°11' E 146°22'2 3.7
2020-Aug-08 23:00S 41°12' E 146°24'2 3.4 170 / 121025.5 3.1 10.3
2020-Aug-08 22:26S 41°11' E 146°22'2 4.4
2020-Aug-08 22:00S 41°12' E 146°24'2 3.3 180 / 121024.7 2.5 10.6
2020-Aug-08 21:25S 41°11' E 146°22'2 4.5
2020-Aug-08 21:00S 41°12' E 146°24'1312.8 170 / 111024.6 2.3 11.1
2020-Aug-08 20:00S 41°00' E 146°18'1515.0 160 / 181023.3 6.5 12.0
2020-Aug-08 19:00S 40°48' E 146°06'2625.7 140 / 181022.7 9.6 12.4
2020-Aug-08 18:00S 40°24' E 145°54'1918.6 120 / 191022.0 10.9 12.5
2020-Aug-08 17:00S 40°06' E 145°48'2020.2 120 / 221021.6 11.1 12.7
2020-Aug-08 16:00S 39°48' E 145°36'2322.7 120 / 281020.9 11.2 12.8
2020-Aug-08 15:00S 39°30' E 145°18'2020.3 110 / 291020.4 11.3 12.8
2020-Aug-08 14:00S 39°12' E 145°06'2625.7 120 / 281019.8 11.5 12.9
2020-Aug-08 13:00S 38°48' E 144°54'2625.8 130 / 271019.0 11.8 12.8
2020-Aug-08 12:00S 38°24' E 144°42'1111.2 130 / 321018.0 11.8 12.2
2020-Aug-08 11:00S 38°18' E 144°54'1818.0 120 / 281018.8 11.2 11.2
2020-Aug-08 10:00S 38°00' E 144°54'1212.0 120 / 311017.3 11.9 11.3
2020-Aug-08 09:00S 37°48' E 144°54'0 0.0 130 / 221016.5 12.3 12.0
2020-Aug-08 07:00S 37°48' E 144°54'0 0.0 120 / 201015.3 13.7 11.4
2020-Aug-08 06:00S 37°48' E 144°54'0 0.0 130 / 181015.3 13.5 11.3
2020-Aug-08 05:00S 37°48' E 144°54'0 0.0 130 / 191015.2 13.4 10.9
2020-Aug-08 04:00S 37°48' E 144°54'0 0.0 130 / 191015.8 12.6 10.9
2020-Aug-08 03:00S 37°48' E 144°54'0 0.0 120 / 131016.2 12.3 10.8
2020-Aug-08 02:00S 37°48' E 144°54'0 0.0 120 / 161016.5 12.4 10.7
2020-Aug-08 01:00S 37°48' E 144°54'0 0.0 130 / 181016.7 11.2 10.7
2020-Aug-08 00:00S 37°48' E 144°54'0 0.0 130 / 191016.5 11.2 10.7
2020-Aug-07 23:00S 37°48' E 144°54'0 0.0 120 / 141016.3 10.5 10.7
2020-Aug-07 22:00S 37°48' E 144°54'0 0.0 120 / 161015.4 10.3 10.8
2020-Aug-07 21:00S 37°48' E 144°54'6 6.0 130 / 191014.8 10.1 11.1
2020-Aug-07 20:00S 37°54' E 144°54'1818.0 120 / 321014.9 10.1 10.8
2020-Aug-07 19:00S 38°12' E 144°54'1515.4 120 / 341015.5 10.6 11.2
2020-Aug-07 18:00S 38°18' E 144°36'2020.3 110 / 331015.3 11.2 12.4
2020-Aug-07 17:00S 38°36' E 144°48'2020.3 110 / 381017.0 11.8 12.9
2020-Aug-07 16:00S 38°54' E 145°00'2020.3 100 / 351018.6 11.8 13.1
2020-Aug-07 15:00S 39°12' E 145°12'2020.3 100 / 351019.7 11.2 12.7
2020-Aug-07 14:00S 39°30' E 145°24'2020.2 110 / 341021.4 11.2 12.8
2020-Aug-07 13:00S 39°48' E 145°36'2625.7 110 / 331022.9 10.4 12.8
2020-Aug-07 12:00S 40°12' E 145°48'2020.2 110 / 311023.9 11.1 12.6
2020-Aug-07 11:00S 40°30' E 146°00'2020.2 120 / 171024.4 10.8 12.5
2020-Aug-07 10:00S 40°48' E 146°12'2625.7 090 / 91024.9 10.2 12.2
2020-Aug-07 09:00S 41°12' E 146°24'0 0.0 170 / 41025.5 7.6 12.4
2020-Aug-07 08:00S 41°12' E 146°24'0 0.0 160 / 31024.9 8.4 11.5
2020-Aug-07 07:00S 41°12' E 146°24'0 0.0 070 / 51024.5 9.5 11.6
2020-Aug-07 06:00S 41°12' E 146°24'0 0.0 060 / 71024.2 10.2 11.6
2020-Aug-07 05:00S 41°12' E 146°24'0 0.0 070 / 71024.1 11.9 11.6
2020-Aug-07 04:00S 41°12' E 146°24'0 0.0 120 / 101023.8 11.5 11.4
2020-Aug-07 03:00S 41°12' E 146°24'0 0.0 140 / 61024.6 10.5 11.2
2020-Aug-07 02:00S 41°12' E 146°24'0 0.0 140 / 101025.6 8.7 11.0
2020-Aug-07 01:00S 41°12' E 146°24'0 0.0 160 / 111026.5 7.2 10.7
2020-Aug-07 00:00S 41°12' E 146°24'0 0.0 170 / 121027.3 5.7 10.2
2020-Aug-06 23:00S 41°12' E 146°24'0 0.0 180 / 131027.8 3.9 10.2
2020-Aug-06 22:00S 41°12' E 146°24'0 0.0 170 / 111027.7 2.6 10.5
2020-Aug-06 21:00S 41°12' E 146°24'6 6.0 170 / 111027.1 2.6 10.6
2020-Aug-06 20:00S 41°06' E 146°24'2020.2 170 / 201025.5 4.6 11.9
2020-Aug-06 19:00S 40°48' E 146°12'2020.2 130 / 141025.2 9.2
2020-Aug-06 18:00S 40°30' E 146°00'2020.2 030 / 31025.5 10.4 12.6
2020-Aug-06 17:00S 40°12' E 145°48'2020.2 070 / 71024.7 10.6 12.7
2020-Aug-06 16:00S 39°54' E 145°36'2625.7 070 / 171024.2 10.7 12.8
2020-Aug-06 15:00S 39°30' E 145°24'2020.3 080 / 201024.0 10.6 12.8
2020-Aug-06 14:00S 39°12' E 145°12'2322.8 100 / 181023.0 10.4 12.8
2020-Aug-06 13:00S 38°54' E 144°54'2625.8 110 / 161022.8 10.1 13.0
2020-Aug-06 12:00S 38°30' E 144°42'1212.0 130 / 111022.6 10.6 12.6
2020-Aug-06 11:00S 38°18' E 144°42'1111.2 170 / 51022.8 10.4 11.5
2020-Aug-06 10:00S 38°12' E 144°54'1818.0 170 / 101022.0 10.4 11.3
2020-Aug-06 09:00S 37°54' E 144°54'6 6.0 150 / 121022.0 10.6 12.3
2020-Aug-06 08:00S 37°48' E 144°54'0 0.0 140 / 111021.3 10.8 11.1
2020-Aug-06 07:00S 37°48' E 144°54'0 0.0 170 / 121021.0 10.8 11.5
2020-Aug-06 04:00S 37°48' E 144°54'0 0.0 240 / 71020.9 11.2 11.0
2020-Aug-06 03:00S 37°48' E 144°54'0 0.0 220 / 61020.9 11.2 10.9
2020-Aug-06 02:00S 37°48' E 144°54'0 0.0 230 / 61021.4 11.4 10.7
2020-Aug-06 01:00S 37°48' E 144°54'0 0.0 250 / 41022.0 10.4 10.5
2020-Aug-06 00:00S 37°48' E 144°54'0 0.0 250 / 71021.6 8.9 10.4
2020-Aug-05 23:00S 37°48' E 144°54'0 0.0 240 / 61021.8 8.0 10.5
2020-Aug-05 22:00S 37°48' E 144°54'0 0.0 260 / 91020.7 7.4 10.7
2020-Aug-05 21:00S 37°48' E 144°54'6 6.0 270 / 111020.4 7.5 11.1
2020-Aug-05 20:00S 37°54' E 144°54'2424.0 260 / 191019.9 7.9
2020-Aug-05 19:00S 38°18' E 144°54'1414.1 230 / 151019.2 10.2 11.4
2020-Aug-05 18:00S 38°18' E 144°36'2020.3 220 / 161019.0 10.2
2020-Aug-05 17:00S 38°36' E 144°48'2020.3 230 / 211018.2 10.2 13.0
2020-Aug-05 16:00S 38°54' E 145°00'2020.3 210 / 271017.5 10.3 13.1
2020-Aug-05 15:00S 39°12' E 145°12'2020.3 210 / 251016.9 9.7
2020-Aug-05 14:00S 39°30' E 145°24'1918.6 220 / 341016.5 9.4 12.8
2020-Aug-05 13:00S 39°48' E 145°30'2827.7 210 / 351015.8 8.8 12.8
2020-Aug-05 12:00S 40°12' E 145°48'2020.2 220 / 231015.1 8.2 12.7
2020-Aug-05 11:00S 40°30' E 146°00'2625.7 220 / 281014.1 8.4 12.5
2020-Aug-05 10:00S 40°54' E 146°12'1020.0 210 / 191013.1 9.2 12.2
2020-Aug-05 09:30S 41°02' E 146°19'1120.4
2020-Aug-05 09:00S 41°12' E 146°24'0 0.0 190 / 41012.1 8.1 12.1
2020-Aug-05 08:00S 41°12' E 146°24'0 0.0 220 / 61011.8 9.3 11.5
2020-Aug-05 07:00S 41°12' E 146°24'0 0.0 230 / 101010.9 10.4 11.6
2020-Aug-05 06:00S 41°12' E 146°24'0 0.0 180 / 151010.8 11.3 11.7
2020-Aug-05 05:00S 41°12' E 146°24'2 3.9 200 / 91010.1 12.1 11.6
2020-Aug-05 04:31S 41°11' E 146°22'2 3.7
2020-Aug-05 04:00S 41°12' E 146°24'0 0.0 220 / 111010.0 11.9 11.6
2020-Aug-05 03:00S 41°12' E 146°24'0 0.0 190 / 111010.2 12.0 11.6
2020-Aug-05 02:00S 41°12' E 146°24'2 1.0 200 / 171010.5 11.2 11.3
2020-Aug-05 00:03S 41°11' E 146°22'234.9
2020-Aug-05 00:00S 41°12' E 146°24'0 0.0 200 / 151010.2 9.8 11.3
2020-Aug-04 23:00S 41°12' E 146°24'2 3.4 210 / 51010.4 8.0 11.2
2020-Aug-04 22:26S 41°11' E 146°22'2 4.3
2020-Aug-04 22:00S 41°12' E 146°24'0 0.0 250 / 51009.7 7.7 10.8
2020-Aug-04 21:00S 41°12' E 146°24'227.8 220 / 71009.1 7.6 11.0
2020-Aug-04 20:55S 41°11' E 146°22'1 0.8
2020-Aug-04 20:00S 41°10' E 146°22'2190.7
2020-Aug-04 20:00S 41°12' E 146°24'2625.7 200 / 111008.3 8.1 11.8
2020-Aug-04 19:00S 40°48' E 146°12'2322.6 230 / 401006.9 8.6 12.2
2020-Aug-04 18:00S 40°30' E 145°54'2424.4 220 / 421007.5 8.8 12.6
2020-Aug-04 17:00S 40°06' E 145°48'2020.2 220 / 491007.0 9.5 12.7
2020-Aug-04 16:00S 39°48' E 145°36'2322.7 210 / 521008.0 9.9 12.8
2020-Aug-04 15:00S 39°30' E 145°18'2625.7 210 / 561007.5 8.6 12.8
2020-Aug-04 14:00S 39°06' E 145°06'2020.3 220 / 441010.1 11.0 13.0
2020-Aug-04 13:00S 38°48' E 144°54'1918.6 230 / 441012.5 8.4 12.9
2020-Aug-04 12:00S 38°30' E 144°48'1312.9 220 / 381013.8 9.3 12.6
2020-Aug-04 11:00S 38°18' E 144°42'1111.2 190 / 261013.3 7.9 12.0
2020-Aug-04 10:00S 38°12' E 144°54'1818.0 260 / 271013.7 5.3 11.1
2020-Aug-04 09:00S 37°54' E 144°54'6 6.0 240 / 281013.6 6.6 11.3
2020-Aug-04 08:00S 37°48' E 144°54'0 0.0 270 / 151013.7 7.8 11.1
2020-Aug-04 07:00S 37°48' E 144°54'0 0.0 260 / 141013.0 9.3 11.1
2020-Aug-04 06:00S 37°48' E 144°54'0 0.0 250 / 121012.6 10.0 11.1
2020-Aug-04 05:00S 37°48' E 144°54'0 0.0 270 / 181012.6 9.6 11.2
2020-Aug-04 04:00S 37°48' E 144°54'0 0.0 280 / 111012.9 6.9 11.2
2020-Aug-04 03:00S 37°48' E 144°54'0 0.0 290 / 91013.3 5.8 11.2
2020-Aug-04 01:00S 37°48' E 144°54'0 0.0 270 / 191013.1 7.9 11.2
2020-Aug-04 00:00S 37°48' E 144°54'0 0.0 290 / 161012.9 6.4 11.2
2020-Aug-03 23:00S 37°48' E 144°54'0 0.0 290 / 181013.0 5.5 11.2
2020-Aug-03 22:00S 37°48' E 144°54'12 6.0 310 / 121012.7 4.9 11.3
2020-Aug-03 20:00S 38°00' E 144°54'1818.0 280 / 281011.5 6.0 11.3
2020-Aug-03 19:00S 38°18' E 144°54'1414.1 280 / 201011.4 6.6 12.1
2020-Aug-03 18:00S 38°18' E 144°36'2827.8 280 / 251011.0 6.7 12.9
2020-Aug-03 17:00S 38°42' E 144°54'2020.3 240 / 321009.9 7.4 13.0
2020-Aug-03 16:00S 39°00' E 145°06'2020.3 230 / 391009.8 6.0 13.2
2020-Aug-03 15:00S 39°18' E 145°18'1918.6 230 / 381009.9 5.3 12.9
2020-Aug-03 14:00S 39°36' E 145°24'2020.2 210 / 231009.6 6.4 12.9
2020-Aug-03 13:00S 39°54' E 145°36'2625.7 220 / 291009.2 6.9 12.8
2020-Aug-03 12:00S 40°18' E 145°48'1515.1 270 / 341007.3 8.2 12.8
2020-Aug-03 11:00S 40°30' E 146°00'428.6 280 / 361007.2 8.4 12.6
2020-Aug-03 10:51S 40°34' E 146°01'1720.7
2020-Aug-03 10:00S 40°50' E 146°11'4298.1
2020-Aug-03 10:00S 40°54' E 146°12'613.3 280 / 311007.5 7.8 12.3
2020-Aug-03 09:30S 40°59' E 146°17'1020.7
2020-Aug-03 09:00S 41°09' E 146°23'3235.3
2020-Aug-03 09:00S 41°12' E 146°24'0 0.0 300 / 131008.2 7.7 13.0
2020-Aug-03 08:00S 41°12' E 146°24'0 0.0 300 / 161008.0 8.5 11.8
2020-Aug-03 07:00S 41°12' E 146°24'0 0.0 310 / 161008.1 9.7 11.8
2020-Aug-03 06:00S 41°12' E 146°24'2 3.7 300 / 121007.7 10.1 11.9
2020-Aug-03 05:29S 41°11' E 146°22'2 3.9
2020-Aug-03 05:00S 41°12' E 146°24'2 3.9 300 / 151008.8 9.9 11.9
2020-Aug-03 04:30S 41°11' E 146°22'2 3.7
2020-Aug-03 04:00S 41°12' E 146°24'2 3.9 290 / 221008.9 9.7 11.9
2020-Aug-03 03:30S 41°11' E 146°22'2 3.7
2020-Aug-03 03:00S 41°12' E 146°24'0 0.0 300 / 171009.4 10.9 11.9
2020-Aug-03 02:00S 41°12' E 146°24'0 0.0 290 / 161010.3 10.0 11.9
2020-Aug-03 01:00S 41°12' E 146°24'0 0.0 290 / 131011.2 10.1 11.9
2020-Aug-03 00:00S 41°12' E 146°24'0 0.0 290 / 131011.4 9.5 11.9
2020-Aug-02 23:00S 41°12' E 146°24'0 0.0 290 / 121011.4 8.9 11.8
2020-Aug-02 22:00S 41°12' E 146°24'0 0.0 300 / 81011.6 8.6 11.8
2020-Aug-02 21:00S 41°12' E 146°24'0 0.0 300 / 101011.7 8.7 11.6
2020-Aug-02 20:00S 41°12' E 146°24'0 0.0 280 / 61011.4 8.4 11.5
2020-Aug-02 19:00S 41°12' E 146°24'0 0.0 310 / 121012.3 8.7 11.3
2020-Aug-02 18:00S 41°12' E 146°24'2 3.9 290 / 111013.3 8.6 11.5
2020-Aug-02 17:30S 41°11' E 146°22'2 3.7
2020-Aug-02 17:00S 41°12' E 146°24'2 3.8 300 / 91013.9 9.7 11.6
2020-Aug-02 16:29S 41°11' E 146°22'2 3.9
2020-Aug-02 16:00S 41°12' E 146°24'0 0.0 310 / 101014.6 9.7 11.8
2020-Aug-02 15:00S 41°12' E 146°24'0 0.0 310 / 91015.4 9.9 11.9
2020-Aug-02 14:00S 41°12' E 146°24'2 3.5 260 / 81016.6 9.4 11.9
2020-Aug-02 13:27S 41°11' E 146°22'0 0.0
2020-Aug-02 13:00S 41°11' E 146°22'2116.5
2020-Aug-02 13:00S 41°12' E 146°24'2 3.9 300 / 81017.0 9.7 12.0
2020-Aug-02 12:30S 41°11' E 146°22'2 3.7
2020-Aug-02 12:00S 41°12' E 146°24'0 0.0 290 / 71017.6 10.0 12.0
2020-Aug-02 11:00S 41°12' E 146°24'2 4.0 300 / 71017.9 9.6 12.0
2020-Aug-02 10:31S 41°11' E 146°22'0 0.0
2020-Aug-02 10:00S 41°11' E 146°22'2202.1
2020-Aug-02 10:00S 41°12' E 146°24'0 0.0 290 / 81018.3 9.9 12.0
2020-Aug-02 09:00S 41°12' E 146°24'0 0.0 290 / 61018.3 10.3 12.0
2020-Aug-02 08:00S 41°12' E 146°24'2 1.3 290 / 91018.3 10.8 11.9
2020-Aug-02 06:30S 41°11' E 146°22'2 3.7
2020-Aug-02 06:00S 41°12' E 146°24'0 0.0 290 / 111018.5 12.4 12.0
2020-Aug-02 05:00S 41°12' E 146°24'0 0.0 310 / 111018.5 11.9 12.0
2020-Aug-02 04:00S 41°12' E 146°24'0 0.0 330 / 151018.5 11.9 12.0
2020-Aug-02 03:00S 41°12' E 146°24'2 4.9 300 / 161019.3 11.5 12.0
2020-Aug-02 02:36S 41°11' E 146°22'2 3.1
2020-Aug-02 02:00S 41°12' E 146°24'0 0.0 320 / 101019.8 11.7 11.9
2020-Aug-02 01:00S 41°12' E 146°24'0 0.0 310 / 101020.3 10.9 11.9
2020-Aug-02 00:00S 41°12' E 146°24'0 0.0 320 / 81020.4 10.4 11.9
2020-Aug-01 23:00S 41°12' E 146°24'0 0.0 310 / 51020.1 9.6 11.9
2020-Aug-01 22:00S 41°12' E 146°24'0 0.0 270 / 51019.8 9.0 11.9
2020-Aug-01 21:00S 41°12' E 146°24'6 6.0 270 / 31019.5 9.4 12.2
2020-Aug-01 20:00S 41°06' E 146°24'2020.2 280 / 171019.2 10.8 12.0
2020-Aug-01 19:00S 40°48' E 146°12'2020.2 290 / 151018.8 11.7 12.4
2020-Aug-01 18:00S 40°30' E 146°00'3517.6 280 / 151019.1 12.0 12.8
2020-Aug-01 16:00S 40°00' E 145°36'4622.9 310 / 251019.8 12.5 13.0
2020-Aug-01 14:00S 39°18' E 145°12'1918.6 320 / 271021.1 12.8 13.1
2020-Aug-01 13:00S 39°00' E 145°06'2020.3 340 / 321020.7 13.4 13.3
2020-Aug-01 12:00S 38°42' E 144°54'2827.8 360 / 291021.2 12.5 13.1
2020-Aug-01 11:00S 38°18' E 144°36'1414.1 010 / 241021.6 12.4 12.8
2020-Aug-01 10:00S 38°18' E 144°54'1818.0 350 / 211022.4 12.4 11.8
2020-Aug-01 09:00S 38°00' E 144°54'1212.0 360 / 231022.9 13.5 11.8
2020-Aug-01 08:00S 37°48' E 144°54'0 0.0 010 / 111022.9 14.0 11.6
2020-Aug-01 07:00S 37°48' E 144°54'0 0.0 010 / 151022.4 14.9 11.6
2020-Aug-01 06:00S 37°48' E 144°54'0 0.0 010 / 151020.9 15.2 11.7
2020-Aug-01 05:00S 37°48' E 144°54'0 0.0 020 / 141021.9 15.5 11.7
2020-Aug-01 04:00S 37°48' E 144°54'0 0.0 360 / 171022.5 14.9 11.6
2020-Aug-01 03:00S 37°48' E 144°54'0 0.0 360 / 171022.4 14.8 11.5
2020-Aug-01 02:00S 37°48' E 144°54'0 0.0 360 / 171023.6 13.6 11.4
2020-Aug-01 01:00S 37°48' E 144°54'0 0.0 360 / 181024.2 12.7 11.4
2020-Aug-01 00:00S 37°48' E 144°54'0 0.0 010 / 171024.2 11.4 11.4
2020-Jul-31 23:00S 37°48' E 144°54'0 0.0 020 / 161024.7 10.5 11.5
2020-Jul-31 22:00S 37°48' E 144°54'0 0.0 020 / 161024.6 9.7 11.6
2020-Jul-31 21:00S 37°48' E 144°54'1212.0 360 / 171024.1 9.6 12.0
2020-Jul-31 20:00S 38°00' E 144°54'1818.0 010 / 251023.9 10.2 11.4
2020-Jul-31 19:00S 38°18' E 144°54'19 9.3 010 / 221023.1 11.1 11.9
2020-Jul-31 17:00S 38°36' E 144°48'2020.3 360 / 231023.1 11.6 13.2
2020-Jul-31 16:00S 38°54' E 145°00'2020.3 350 / 241023.4 12.0 13.3
2020-Jul-31 15:00S 39°12' E 145°12'2020.3 350 / 221023.5 12.4 13.2
2020-Jul-31 14:00S 39°30' E 145°24'1918.6 010 / 181024.2 12.3 13.1
2020-Jul-31 13:00S 39°48' E 145°30'2020.2 350 / 161024.6 12.2 12.9
2020-Jul-31 12:00S 40°06' E 145°42'2020.2 330 / 161024.9 11.9 12.9
2020-Jul-31 11:00S 40°24' E 145°54'2121.0 320 / 171024.8 12.1 12.8
2020-Jul-31 10:00S 40°43' E 146°06'53726.1
2020-Jul-31 10:00S 40°48' E 146°06'2020.2 310 / 171024.4 11.9 12.4
2020-Jul-31 09:00S 41°06' E 146°18'8 7.5 320 / 181024.0 11.9 12.4
2020-Jul-31 08:00S 41°12' E 146°24'0 0.0 300 / 101023.8 11.7 11.6
2020-Jul-31 07:00S 41°12' E 146°24'2 2.4 310 / 101023.6 11.7 11.5
2020-Jul-31 06:12S 41°11' E 146°22'2 9.5
2020-Jul-31 06:00S 41°12' E 146°24'259.2 300 / 141022.9 12.0 11.3
2020-Jul-31 05:58S 41°11' E 146°22'0 0.0
2020-Jul-31 04:57S 41°11' E 146°22'0 0.0
2020-Jul-31 04:01S 41°11' E 146°22'2112.6
2020-Jul-31 04:00S 41°12' E 146°24'0 0.0 310 / 141023.9 11.9 11.3
2020-Jul-31 03:00S 41°12' E 146°24'0 0.0 320 / 151024.5 11.6 11.2
2020-Jul-31 02:00S 41°12' E 146°24'0 0.0 310 / 151025.2 11.6 11.3
2020-Jul-31 01:00S 41°12' E 146°24'0 0.0 310 / 81026.2 11.2 11.7
2020-Jul-31 00:00S 41°12' E 146°24'0 0.0 1026.1 7.9 11.5
2020-Jul-30 23:00S 41°12' E 146°24'2 3.1 190 / 31026.2 4.0 11.6
2020-Jul-30 22:22S 41°11' E 146°22'2 5.0
2020-Jul-30 22:00S 41°12' E 146°24'2 3.6 220 / 31026.1 3.9 11.7
2020-Jul-30 21:27S 41°11' E 146°22'2 4.1
2020-Jul-30 21:00S 41°12' E 146°24'2 3.5 180 / 31026.4 3.7 12.0
2020-Jul-30 20:27S 41°11' E 146°22'511.1
2020-Jul-30 20:00S 41°06' E 146°24'613.0 280 / 131026.0 9.0 11.9
2020-Jul-30 19:31S 41°01' E 146°18'1427.6
2020-Jul-30 19:00S 40°48' E 146°12'2020.2 260 / 91026.5 10.7 12.3
2020-Jul-30 18:00S 40°30' E 146°00'2020.2 280 / 131026.9 11.7 12.8
2020-Jul-30 17:00S 40°12' E 145°48'2827.7 260 / 171027.5 12.3 12.9
2020-Jul-30 16:00S 39°48' E 145°30'2020.2 260 / 171028.1 12.2 13.0
2020-Jul-30 15:00S 39°30' E 145°18'2020.3 260 / 121028.7 11.9 13.2
2020-Jul-30 14:00S 39°12' E 145°06'2020.3 250 / 121029.1 12.1 13.3
2020-Jul-30 13:00S 38°54' E 144°54'2424.5 250 / 101029.3 12.2 13.2
2020-Jul-30 12:00S 38°30' E 144°48'1312.9 240 / 131029.6 12.3 13.0
2020-Jul-30 11:00S 38°18' E 144°42'1111.2 230 / 31030.1 11.8 12.7
2020-Jul-30 10:00S 38°12' E 144°54'1818.0 200 / 71030.1 11.6 11.8
2020-Jul-30 09:00S 37°54' E 144°54'6 3.0 140 / 61029.6 11.7 12.7
2020-Jul-30 07:00S 37°48' E 144°54'0 0.0 170 / 41028.4 11.9 11.7
2020-Jul-30 06:00S 37°48' E 144°54'0 0.0 190 / 41028.0 12.2 11.8
2020-Jul-30 05:00S 37°48' E 144°54'   220 / 51027.9 13.4 11.8
Track history (hours):
 
Tides and Currents Weather Stations Pressure Air Temp Water Temp Dewpoint Dewpoint Depression Visibility Wind Speed Wind Dir Waves Ship Positions

Spirit Of Tasmania II

Last reported at 2020-Aug-09 04:30 UTC. Time now 2020-Aug-09 05:20 UTC.
Position S 41°11' E 146°22'.

Length 194.3 m; beam 25 m; draft 6.2 m.

Type: Ship. MMSI: 503433000.

Date/timePositionNaut miles runAvg speedWind from/ knotsBaromVisibWave heightAir tempDewpointWater temp
2020-Aug-09 04:30S 41°11' E 146°22'2 3.7
2020-Aug-09 04:00S 41°12' E 146°24'0 0.0 360 / 61023.2 11.8 11.2
2020-Aug-09 03:00S 41°12' E 146°24'0 0.0 020 / 51023.0 12.2 11.0
2020-Aug-09 02:00S 41°12' E 146°24'0 0.0 170 / 51024.6 10.3 10.6
2020-Aug-09 01:00S 41°12' E 146°24'0 0.0 190 / 81025.2 8.2 10.1
2020-Aug-09 00:00S 41°12' E 146°24'2 3.9 180 / 101025.4 5.4 10.3
2020-Aug-08 23:30S 41°11' E 146°22'2 3.7
2020-Aug-08 23:00S 41°12' E 146°24'2 3.4 170 / 121025.5 3.1 10.3
2020-Aug-08 22:26S 41°11' E 146°22'2 4.4
2020-Aug-08 22:00S 41°12' E 146°24'2 3.3 180 / 121024.7 2.5 10.6
2020-Aug-08 21:25S 41°11' E 146°22'2 4.5
2020-Aug-08 21:00S 41°12' E 146°24'1312.8 170 / 111024.6 2.3 11.1
2020-Aug-08 20:00S 41°00' E 146°18'1515.0 160 / 181023.3 6.5 12.0
2020-Aug-08 19:00S 40°48' E 146°06'2625.7 140 / 181022.7 9.6 12.4
2020-Aug-08 18:00S 40°24' E 145°54'1918.6 120 / 191022.0 10.9 12.5
2020-Aug-08 17:00S 40°06' E 145°48'2020.2 120 / 221021.6 11.1 12.7
2020-Aug-08 16:00S 39°48' E 145°36'2322.7 120 / 281020.9 11.2 12.8
2020-Aug-08 15:00S 39°30' E 145°18'2020.3 110 / 291020.4 11.3 12.8
2020-Aug-08 14:00S 39°12' E 145°06'2625.7 120 / 281019.8 11.5 12.9
2020-Aug-08 13:00S 38°48' E 144°54'2625.8 130 / 271019.0 11.8 12.8
2020-Aug-08 12:00S 38°24' E 144°42'1111.2 130 / 321018.0 11.8 12.2
2020-Aug-08 11:00S 38°18' E 144°54'1818.0 120 / 281018.8 11.2 11.2
2020-Aug-08 10:00S 38°00' E 144°54'1212.0 120 / 311017.3 11.9 11.3
2020-Aug-08 09:00S 37°48' E 144°54'0 0.0 130 / 221016.5 12.3 12.0
2020-Aug-08 07:00S 37°48' E 144°54'0 0.0 120 / 201015.3 13.7 11.4
2020-Aug-08 06:00S 37°48' E 144°54'0 0.0 130 / 181015.3 13.5 11.3
2020-Aug-08 05:00S 37°48' E 144°54'0 0.0 130 / 191015.2 13.4 10.9
2020-Aug-08 04:00S 37°48' E 144°54'0 0.0 130 / 191015.8 12.6 10.9
2020-Aug-08 03:00S 37°48' E 144°54'0 0.0 120 / 131016.2 12.3 10.8
2020-Aug-08 02:00S 37°48' E 144°54'0 0.0 120 / 161016.5 12.4 10.7
2020-Aug-08 01:00S 37°48' E 144°54'0 0.0 130 / 181016.7 11.2 10.7
2020-Aug-08 00:00S 37°48' E 144°54'0 0.0 130 / 191016.5 11.2 10.7
2020-Aug-07 23:00S 37°48' E 144°54'0 0.0 120 / 141016.3 10.5 10.7
2020-Aug-07 22:00S 37°48' E 144°54'0 0.0 120 / 161015.4 10.3 10.8
2020-Aug-07 21:00S 37°48' E 144°54'6 6.0 130 / 191014.8 10.1 11.1
2020-Aug-07 20:00S 37°54' E 144°54'1818.0 120 / 321014.9 10.1 10.8
2020-Aug-07 19:00S 38°12' E 144°54'1515.4 120 / 341015.5 10.6 11.2
2020-Aug-07 18:00S 38°18' E 144°36'2020.3 110 / 331015.3 11.2 12.4
2020-Aug-07 17:00S 38°36' E 144°48'2020.3 110 / 381017.0 11.8 12.9
2020-Aug-07 16:00S 38°54' E 145°00'2020.3 100 / 351018.6 11.8 13.1
2020-Aug-07 15:00S 39°12' E 145°12'2020.3 100 / 351019.7 11.2 12.7
2020-Aug-07 14:00S 39°30' E 145°24'2020.2 110 / 341021.4 11.2 12.8
2020-Aug-07 13:00S 39°48' E 145°36'2625.7 110 / 331022.9 10.4 12.8
2020-Aug-07 12:00S 40°12' E 145°48'2020.2 110 / 311023.9 11.1 12.6
2020-Aug-07 11:00S 40°30' E 146°00'2020.2 120 / 171024.4 10.8 12.5
2020-Aug-07 10:00S 40°48' E 146°12'2625.7 090 / 91024.9 10.2 12.2
2020-Aug-07 09:00S 41°12' E 146°24'0 0.0 170 / 41025.5 7.6 12.4
2020-Aug-07 08:00S 41°12' E 146°24'0 0.0 160 / 31024.9 8.4 11.5
2020-Aug-07 07:00S 41°12' E 146°24'0 0.0 070 / 51024.5 9.5 11.6
2020-Aug-07 06:00S 41°12' E 146°24'0 0.0 060 / 71024.2 10.2 11.6
2020-Aug-07 05:00S 41°12' E 146°24'0 0.0 070 / 71024.1 11.9 11.6
2020-Aug-07 04:00S 41°12' E 146°24'0 0.0 120 / 101023.8 11.5 11.4
2020-Aug-07 03:00S 41°12' E 146°24'0 0.0 140 / 61024.6 10.5 11.2
2020-Aug-07 02:00S 41°12' E 146°24'0 0.0 140 / 101025.6 8.7 11.0
2020-Aug-07 01:00S 41°12' E 146°24'0 0.0 160 / 111026.5 7.2 10.7
2020-Aug-07 00:00S 41°12' E 146°24'0 0.0 170 / 121027.3 5.7 10.2
2020-Aug-06 23:00S 41°12' E 146°24'0 0.0 180 / 131027.8 3.9 10.2
2020-Aug-06 22:00S 41°12' E 146°24'0 0.0 170 / 111027.7 2.6 10.5
2020-Aug-06 21:00S 41°12' E 146°24'6 6.0 170 / 111027.1 2.6 10.6
2020-Aug-06 20:00S 41°06' E 146°24'2020.2 170 / 201025.5 4.6 11.9
2020-Aug-06 19:00S 40°48' E 146°12'2020.2 130 / 141025.2 9.2
2020-Aug-06 18:00S 40°30' E 146°00'2020.2 030 / 31025.5 10.4 12.6
2020-Aug-06 17:00S 40°12' E 145°48'2020.2 070 / 71024.7 10.6 12.7
2020-Aug-06 16:00S 39°54' E 145°36'2625.7 070 / 171024.2 10.7 12.8
2020-Aug-06 15:00S 39°30' E 145°24'2020.3 080 / 201024.0 10.6 12.8
2020-Aug-06 14:00S 39°12' E 145°12'2322.8 100 / 181023.0 10.4 12.8
2020-Aug-06 13:00S 38°54' E 144°54'2625.8 110 / 161022.8 10.1 13.0
2020-Aug-06 12:00S 38°30' E 144°42'1212.0 130 / 111022.6 10.6 12.6
2020-Aug-06 11:00S 38°18' E 144°42'1111.2 170 / 51022.8 10.4 11.5
2020-Aug-06 10:00S 38°12' E 144°54'1818.0 170 / 101022.0 10.4 11.3
2020-Aug-06 09:00S 37°54' E 144°54'6 6.0 150 / 121022.0 10.6 12.3
2020-Aug-06 08:00S 37°48' E 144°54'0 0.0 140 / 111021.3 10.8 11.1
2020-Aug-06 07:00S 37°48' E 144°54'0 0.0 170 / 121021.0 10.8 11.5
2020-Aug-06 04:00S 37°48' E 144°54'0 0.0 240 / 71020.9 11.2 11.0
2020-Aug-06 03:00S 37°48' E 144°54'0 0.0 220 / 61020.9 11.2 10.9
2020-Aug-06 02:00S 37°48' E 144°54'0 0.0 230 / 61021.4 11.4 10.7
2020-Aug-06 01:00S 37°48' E 144°54'0 0.0 250 / 41022.0 10.4 10.5
2020-Aug-06 00:00S 37°48' E 144°54'0 0.0 250 / 71021.6 8.9 10.4
2020-Aug-05 23:00S 37°48' E 144°54'0 0.0 240 / 61021.8 8.0 10.5
2020-Aug-05 22:00S 37°48' E 144°54'0 0.0 260 / 91020.7 7.4 10.7
2020-Aug-05 21:00S 37°48' E 144°54'6 6.0 270 / 111020.4 7.5 11.1
2020-Aug-05 20:00S 37°54' E 144°54'2424.0 260 / 191019.9 7.9
2020-Aug-05 19:00S 38°18' E 144°54'1414.1 230 / 151019.2 10.2 11.4
2020-Aug-05 18:00S 38°18' E 144°36'2020.3 220 / 161019.0 10.2
2020-Aug-05 17:00S 38°36' E 144°48'2020.3 230 / 211018.2 10.2 13.0
2020-Aug-05 16:00S 38°54' E 145°00'2020.3 210 / 271017.5 10.3 13.1
2020-Aug-05 15:00S 39°12' E 145°12'2020.3 210 / 251016.9 9.7
2020-Aug-05 14:00S 39°30' E 145°24'1918.6 220 / 341016.5 9.4 12.8
2020-Aug-05 13:00S 39°48' E 145°30'2827.7 210 / 351015.8 8.8 12.8
2020-Aug-05 12:00S 40°12' E 145°48'2020.2 220 / 231015.1 8.2 12.7
2020-Aug-05 11:00S 40°30' E 146°00'2625.7 220 / 281014.1 8.4 12.5
2020-Aug-05 10:00S 40°54' E 146°12'1020.0 210 / 191013.1 9.2 12.2
2020-Aug-05 09:30S 41°02' E 146°19'1120.4
2020-Aug-05 09:00S 41°12' E 146°24'0 0.0 190 / 41012.1 8.1 12.1
2020-Aug-05 08:00S 41°12' E 146°24'0 0.0 220 / 61011.8 9.3 11.5
2020-Aug-05 07:00S 41°12' E 146°24'0 0.0 230 / 101010.9 10.4 11.6
2020-Aug-05 06:00S 41°12' E 146°24'0 0.0 180 / 151010.8 11.3 11.7
2020-Aug-05 05:00S 41°12' E 146°24'2 3.9 200 / 91010.1 12.1 11.6
2020-Aug-05 04:31S 41°11' E 146°22'2 3.7
2020-Aug-05 04:00S 41°12' E 146°24'0 0.0 220 / 111010.0 11.9 11.6
2020-Aug-05 03:00S 41°12' E 146°24'0 0.0 190 / 111010.2 12.0 11.6
2020-Aug-05 02:00S 41°12' E 146°24'2 1.0 200 / 171010.5 11.2 11.3
2020-Aug-05 00:03S 41°11' E 146°22'234.9
2020-Aug-05 00:00S 41°12' E 146°24'0 0.0 200 / 151010.2 9.8 11.3
2020-Aug-04 23:00S 41°12' E 146°24'2 3.4 210 / 51010.4 8.0 11.2
2020-Aug-04 22:26S 41°11' E 146°22'2 4.3
2020-Aug-04 22:00S 41°12' E 146°24'0 0.0 250 / 51009.7 7.7 10.8
2020-Aug-04 21:00S 41°12' E 146°24'227.8 220 / 71009.1 7.6 11.0
2020-Aug-04 20:55S 41°11' E 146°22'1 0.8
2020-Aug-04 20:00S 41°10' E 146°22'2190.7
2020-Aug-04 20:00S 41°12' E 146°24'2625.7 200 / 111008.3 8.1 11.8
2020-Aug-04 19:00S 40°48' E 146°12'2322.6 230 / 401006.9 8.6 12.2
2020-Aug-04 18:00S 40°30' E 145°54'2424.4 220 / 421007.5 8.8 12.6
2020-Aug-04 17:00S 40°06' E 145°48'2020.2 220 / 491007.0 9.5 12.7
2020-Aug-04 16:00S 39°48' E 145°36'2322.7 210 / 521008.0 9.9 12.8
2020-Aug-04 15:00S 39°30' E 145°18'2625.7 210 / 561007.5 8.6 12.8
2020-Aug-04 14:00S 39°06' E 145°06'2020.3 220 / 441010.1 11.0 13.0
2020-Aug-04 13:00S 38°48' E 144°54'1918.6 230 / 441012.5 8.4 12.9
2020-Aug-04 12:00S 38°30' E 144°48'1312.9 220 / 381013.8 9.3 12.6
2020-Aug-04 11:00S 38°18' E 144°42'1111.2 190 / 261013.3 7.9 12.0
2020-Aug-04 10:00S 38°12' E 144°54'1818.0 260 / 271013.7 5.3 11.1
2020-Aug-04 09:00S 37°54' E 144°54'6 6.0 240 / 281013.6 6.6 11.3
2020-Aug-04 08:00S 37°48' E 144°54'0 0.0 270 / 151013.7 7.8 11.1
2020-Aug-04 07:00S 37°48' E 144°54'0 0.0 260 / 141013.0 9.3 11.1
2020-Aug-04 06:00S 37°48' E 144°54'0 0.0 250 / 121012.6 10.0 11.1
2020-Aug-04 05:00S 37°48' E 144°54'0 0.0 270 / 181012.6 9.6 11.2
2020-Aug-04 04:00S 37°48' E 144°54'0 0.0 280 / 111012.9 6.9 11.2
2020-Aug-04 03:00S 37°48' E 144°54'0 0.0 290 / 91013.3 5.8 11.2
2020-Aug-04 01:00S 37°48' E 144°54'0 0.0 270 / 191013.1 7.9 11.2
2020-Aug-04 00:00S 37°48' E 144°54'0 0.0 290 / 161012.9 6.4 11.2
2020-Aug-03 23:00S 37°48' E 144°54'0 0.0 290 / 181013.0 5.5 11.2
2020-Aug-03 22:00S 37°48' E 144°54'12 6.0 310 / 121012.7 4.9 11.3
2020-Aug-03 20:00S 38°00' E 144°54'1818.0 280 / 281011.5 6.0 11.3
2020-Aug-03 19:00S 38°18' E 144°54'1414.1 280 / 201011.4 6.6 12.1
2020-Aug-03 18:00S 38°18' E 144°36'2827.8 280 / 251011.0 6.7 12.9
2020-Aug-03 17:00S 38°42' E 144°54'2020.3 240 / 321009.9 7.4 13.0
2020-Aug-03 16:00S 39°00' E 145°06'2020.3 230 / 391009.8 6.0 13.2
2020-Aug-03 15:00S 39°18' E 145°18'1918.6 230 / 381009.9 5.3 12.9
2020-Aug-03 14:00S 39°36' E 145°24'2020.2 210 / 231009.6 6.4 12.9
2020-Aug-03 13:00S 39°54' E 145°36'2625.7 220 / 291009.2 6.9 12.8
2020-Aug-03 12:00S 40°18' E 145°48'1515.1 270 / 341007.3 8.2 12.8
2020-Aug-03 11:00S 40°30' E 146°00'428.6 280 / 361007.2 8.4 12.6
2020-Aug-03 10:51S 40°34' E 146°01'1720.7
2020-Aug-03 10:00S 40°50' E 146°11'4298.1
2020-Aug-03 10:00S 40°54' E 146°12'613.3 280 / 311007.5 7.8 12.3
2020-Aug-03 09:30S 40°59' E 146°17'1020.7
2020-Aug-03 09:00S 41°09' E 146°23'3235.3
2020-Aug-03 09:00S 41°12' E 146°24'0 0.0 300 / 131008.2 7.7 13.0
2020-Aug-03 08:00S 41°12' E 146°24'0 0.0 300 / 161008.0 8.5 11.8
2020-Aug-03 07:00S 41°12' E 146°24'0 0.0 310 / 161008.1 9.7 11.8
2020-Aug-03 06:00S 41°12' E 146°24'2 3.7 300 / 121007.7 10.1 11.9
2020-Aug-03 05:29S 41°11' E 146°22'2 3.9
2020-Aug-03 05:00S 41°12' E 146°24'2 3.9 300 / 151008.8 9.9 11.9
2020-Aug-03 04:30S 41°11' E 146°22'2 3.7
2020-Aug-03 04:00S 41°12' E 146°24'2 3.9 290 / 221008.9 9.7 11.9
2020-Aug-03 03:30S 41°11' E 146°22'2 3.7
2020-Aug-03 03:00S 41°12' E 146°24'0 0.0 300 / 171009.4 10.9 11.9
2020-Aug-03 02:00S 41°12' E 146°24'0 0.0 290 / 161010.3 10.0 11.9
2020-Aug-03 01:00S 41°12' E 146°24'0 0.0 290 / 131011.2 10.1 11.9
2020-Aug-03 00:00S 41°12' E 146°24'0 0.0 290 / 131011.4 9.5 11.9
2020-Aug-02 23:00S 41°12' E 146°24'0 0.0 290 / 121011.4 8.9 11.8
2020-Aug-02 22:00S 41°12' E 146°24'0 0.0 300 / 81011.6 8.6 11.8
2020-Aug-02 21:00S 41°12' E 146°24'0 0.0 300 / 101011.7 8.7 11.6
2020-Aug-02 20:00S 41°12' E 146°24'0 0.0 280 / 61011.4 8.4 11.5
2020-Aug-02 19:00S 41°12' E 146°24'0 0.0 310 / 121012.3 8.7 11.3
2020-Aug-02 18:00S 41°12' E 146°24'2 3.9 290 / 111013.3 8.6 11.5
2020-Aug-02 17:30S 41°11' E 146°22'2 3.7
2020-Aug-02 17:00S 41°12' E 146°24'2 3.8 300 / 91013.9 9.7 11.6
2020-Aug-02 16:29S 41°11' E 146°22'2 3.9
2020-Aug-02 16:00S 41°12' E 146°24'0 0.0 310 / 101014.6 9.7 11.8
2020-Aug-02 15:00S 41°12' E 146°24'0 0.0 310 / 91015.4 9.9 11.9
2020-Aug-02 14:00S 41°12' E 146°24'2 3.5 260 / 81016.6 9.4 11.9
2020-Aug-02 13:27S 41°11' E 146°22'0 0.0
2020-Aug-02 13:00S 41°11' E 146°22'2116.5
2020-Aug-02 13:00S 41°12' E 146°24'2 3.9 300 / 81017.0 9.7 12.0
2020-Aug-02 12:30S 41°11' E 146°22'2 3.7
2020-Aug-02 12:00S 41°12' E 146°24'0 0.0 290 / 71017.6 10.0 12.0
2020-Aug-02 11:00S 41°12' E 146°24'2 4.0 300 / 71017.9 9.6 12.0
2020-Aug-02 10:31S 41°11' E 146°22'0 0.0
2020-Aug-02 10:00S 41°11' E 146°22'2202.1
2020-Aug-02 10:00S 41°12' E 146°24'0 0.0 290 / 81018.3 9.9 12.0
2020-Aug-02 09:00S 41°12' E 146°24'0 0.0 290 / 61018.3 10.3 12.0
2020-Aug-02 08:00S 41°12' E 146°24'2 1.3 290 / 91018.3 10.8 11.9
2020-Aug-02 06:30S 41°11' E 146°22'2 3.7
2020-Aug-02 06:00S 41°12' E 146°24'0 0.0 290 / 111018.5 12.4 12.0
2020-Aug-02 05:00S 41°12' E 146°24'0 0.0 310 / 111018.5 11.9 12.0
2020-Aug-02 04:00S 41°12' E 146°24'0 0.0 330 / 151018.5 11.9 12.0
2020-Aug-02 03:00S 41°12' E 146°24'2 4.9 300 / 161019.3 11.5 12.0
2020-Aug-02 02:36S 41°11' E 146°22'2 3.1
2020-Aug-02 02:00S 41°12' E 146°24'0 0.0 320 / 101019.8 11.7 11.9
2020-Aug-02 01:00S 41°12' E 146°24'0 0.0 310 / 101020.3 10.9 11.9
2020-Aug-02 00:00S 41°12' E 146°24'0 0.0 320 / 81020.4 10.4 11.9
2020-Aug-01 23:00S 41°12' E 146°24'0 0.0 310 / 51020.1 9.6 11.9
2020-Aug-01 22:00S 41°12' E 146°24'0 0.0 270 / 51019.8 9.0 11.9
2020-Aug-01 21:00S 41°12' E 146°24'6 6.0 270 / 31019.5 9.4 12.2
2020-Aug-01 20:00S 41°06' E 146°24'2020.2 280 / 171019.2 10.8 12.0
2020-Aug-01 19:00S 40°48' E 146°12'2020.2 290 / 151018.8 11.7 12.4
2020-Aug-01 18:00S 40°30' E 146°00'3517.6 280 / 151019.1 12.0 12.8
2020-Aug-01 16:00S 40°00' E 145°36'4622.9 310 / 251019.8 12.5 13.0
2020-Aug-01 14:00S 39°18' E 145°12'1918.6 320 / 271021.1 12.8 13.1
2020-Aug-01 13:00S 39°00' E 145°06'2020.3 340 / 321020.7 13.4 13.3
2020-Aug-01 12:00S 38°42' E 144°54'2827.8 360 / 291021.2 12.5 13.1
2020-Aug-01 11:00S 38°18' E 144°36'1414.1 010 / 241021.6 12.4 12.8
2020-Aug-01 10:00S 38°18' E 144°54'1818.0 350 / 211022.4 12.4 11.8
2020-Aug-01 09:00S 38°00' E 144°54'1212.0 360 / 231022.9 13.5 11.8
2020-Aug-01 08:00S 37°48' E 144°54'0 0.0 010 / 111022.9 14.0 11.6
2020-Aug-01 07:00S 37°48' E 144°54'0 0.0 010 / 151022.4 14.9 11.6
2020-Aug-01 06:00S 37°48' E 144°54'0 0.0 010 / 151020.9 15.2 11.7
2020-Aug-01 05:00S 37°48' E 144°54'0 0.0 020 / 141021.9 15.5 11.7
2020-Aug-01 04:00S 37°48' E 144°54'0 0.0 360 / 171022.5 14.9 11.6
2020-Aug-01 03:00S 37°48' E 144°54'0 0.0 360 / 171022.4 14.8 11.5
2020-Aug-01 02:00S 37°48' E 144°54'0 0.0 360 / 171023.6 13.6 11.4
2020-Aug-01 01:00S 37°48' E 144°54'0 0.0 360 / 181024.2 12.7 11.4
2020-Aug-01 00:00S 37°48' E 144°54'0 0.0 010 / 171024.2 11.4 11.4
2020-Jul-31 23:00S 37°48' E 144°54'0 0.0 020 / 161024.7 10.5 11.5
2020-Jul-31 22:00S 37°48' E 144°54'0 0.0 020 / 161024.6 9.7 11.6
2020-Jul-31 21:00S 37°48' E 144°54'1212.0 360 / 171024.1 9.6 12.0
2020-Jul-31 20:00S 38°00' E 144°54'1818.0 010 / 251023.9 10.2 11.4
2020-Jul-31 19:00S 38°18' E 144°54'19 9.3 010 / 221023.1 11.1 11.9
2020-Jul-31 17:00S 38°36' E 144°48'2020.3 360 / 231023.1 11.6 13.2
2020-Jul-31 16:00S 38°54' E 145°00'2020.3 350 / 241023.4 12.0 13.3
2020-Jul-31 15:00S 39°12' E 145°12'2020.3 350 / 221023.5 12.4 13.2
2020-Jul-31 14:00S 39°30' E 145°24'1918.6 010 / 181024.2 12.3 13.1
2020-Jul-31 13:00S 39°48' E 145°30'2020.2 350 / 161024.6 12.2 12.9
2020-Jul-31 12:00S 40°06' E 145°42'2020.2 330 / 161024.9 11.9 12.9
2020-Jul-31 11:00S 40°24' E 145°54'2121.0 320 / 171024.8 12.1 12.8
2020-Jul-31 10:00S 40°43' E 146°06'53726.1
2020-Jul-31 10:00S 40°48' E 146°06'2020.2 310 / 171024.4 11.9 12.4
2020-Jul-31 09:00S 41°06' E 146°18'8 7.5 320 / 181024.0 11.9 12.4
2020-Jul-31 08:00S 41°12' E 146°24'0 0.0 300 / 101023.8 11.7 11.6
2020-Jul-31 07:00S 41°12' E 146°24'2 2.4 310 / 101023.6 11.7 11.5
2020-Jul-31 06:12S 41°11' E 146°22'2 9.5
2020-Jul-31 06:00S 41°12' E 146°24'259.2 300 / 141022.9 12.0 11.3
2020-Jul-31 05:58S 41°11' E 146°22'0 0.0
2020-Jul-31 04:57S 41°11' E 146°22'0 0.0
2020-Jul-31 04:01S 41°11' E 146°22'2112.6
2020-Jul-31 04:00S 41°12' E 146°24'0 0.0 310 / 141023.9 11.9 11.3
2020-Jul-31 03:00S 41°12' E 146°24'0 0.0 320 / 151024.5 11.6 11.2
2020-Jul-31 02:00S 41°12' E 146°24'0 0.0 310 / 151025.2 11.6 11.3
2020-Jul-31 01:00S 41°12' E 146°24'0 0.0 310 / 81026.2 11.2 11.7
2020-Jul-31 00:00S 41°12' E 146°24'0 0.0 1026.1 7.9 11.5
2020-Jul-30 23:00S 41°12' E 146°24'2 3.1 190 / 31026.2 4.0 11.6
2020-Jul-30 22:22S 41°11' E 146°22'2 5.0
2020-Jul-30 22:00S 41°12' E 146°24'2 3.6 220 / 31026.1 3.9 11.7
2020-Jul-30 21:27S 41°11' E 146°22'2 4.1
2020-Jul-30 21:00S 41°12' E 146°24'2 3.5 180 / 31026.4 3.7 12.0
2020-Jul-30 20:27S 41°11' E 146°22'511.1
2020-Jul-30 20:00S 41°06' E 146°24'613.0 280 / 131026.0 9.0 11.9
2020-Jul-30 19:31S 41°01' E 146°18'1427.6
2020-Jul-30 19:00S 40°48' E 146°12'2020.2 260 / 91026.5 10.7 12.3
2020-Jul-30 18:00S 40°30' E 146°00'2020.2 280 / 131026.9 11.7 12.8
2020-Jul-30 17:00S 40°12' E 145°48'2827.7 260 / 171027.5 12.3 12.9
2020-Jul-30 16:00S 39°48' E 145°30'2020.2 260 / 171028.1 12.2 13.0
2020-Jul-30 15:00S 39°30' E 145°18'2020.3 260 / 121028.7 11.9 13.2
2020-Jul-30 14:00S 39°12' E 145°06'2020.3 250 / 121029.1 12.1 13.3
2020-Jul-30 13:00S 38°54' E 144°54'2424.5 250 / 101029.3 12.2 13.2
2020-Jul-30 12:00S 38°30' E 144°48'1312.9 240 / 131029.6 12.3 13.0
2020-Jul-30 11:00S 38°18' E 144°42'1111.2 230 / 31030.1 11.8 12.7
2020-Jul-30 10:00S 38°12' E 144°54'1818.0 200 / 71030.1 11.6 11.8
2020-Jul-30 09:00S 37°54' E 144°54'6 3.0 140 / 61029.6 11.7 12.7
2020-Jul-30 07:00S 37°48' E 144°54'0 0.0 170 / 41028.4 11.9 11.7
2020-Jul-30 06:00S 37°48' E 144°54'0 0.0 190 / 41028.0 12.2 11.8
2020-Jul-30 05:00S 37°48' E 144°54'   220 / 51027.9 13.4 11.8

Dump ship's entire track history